Time;durP1;ratioP1;P1;durP2;ratioP2;P2;SDS_P1;SDS_P2;PMS_P1;PMS_P2;Temp;Humidity;BMP_temperature;BMP_pressure;BME280_temperature;BME280_humidity;BME280_pressure;Samples;Min_cycle;Max_cycle;Signal;HPM_P1;HPM_P2
2023/12/21 00:03:40;;;;;;;0.98;0.57;;;;;;;10.25;100.00;100519.59;4876522;22;20048;-49
2023/12/21 00:06:07;;;;;;;5.40;0.77;;;;;;;10.25;100.00;100519.59;5081248;28;20057;-50
2023/12/21 00:08:38;;;;;;;0.85;0.43;;;;;;;10.26;100.00;100537.81;5077341;28;20048;-50
2023/12/21 00:11:05;;;;;;;1.42;0.50;;;;;;;10.26;100.00;100548.06;5072564;28;20053;-51
2023/12/21 00:13:34;;;;;;;1.65;0.60;;;;;;;10.26;100.00;100537.81;5073630;28;20056;-52
2023/12/21 00:16:07;;;;;;;0.57;0.50;;;;;;;10.26;100.00;100526.75;5079306;28;20044;-53
2023/12/21 00:18:34;;;;;;;0.50;0.50;;;;;;;10.28;100.00;100523.63;5075795;28;20135;-51
2023/12/21 00:21:02;;;;;;;4.68;1.05;;;;;;;10.28;100.00;100507.84;5083728;28;20428;-48
2023/12/21 00:23:29;;;;;;;4.00;0.60;;;;;;;10.28;100.00;100518.91;5088726;28;20052;-53
2023/12/21 00:25:57;;;;;;;5.85;0.93;;;;;;;10.27;100.00;100511.75;5089310;28;20584;-50
2023/12/21 00:28:24;;;;;;;2.33;1.08;;;;;;;10.27;100.00;100499.91;5075371;28;20056;-51
2023/12/21 00:30:51;;;;;;;2.15;0.77;;;;;;;10.26;100.00;100482.50;5068753;28;20063;-50
2023/12/21 00:33:19;;;;;;;1.95;0.50;;;;;;;10.26;100.00;100485.25;5068563;28;20056;-50
2023/12/21 00:35:46;;;;;;;2.85;1.65;;;;;;;10.26;100.00;100503.81;5056147;28;20048;-49
2023/12/21 00:38:14;;;;;;;1.85;0.73;;;;;;;10.27;100.00;100470.25;5073830;28;20056;-50
2023/12/21 00:40:41;;;;;;;3.45;2.40;;;;;;;10.26;100.00;100479.72;5068185;28;20414;-49
2023/12/21 00:43:09;;;;;;;3.38;1.50;;;;;;;10.27;100.00;100470.25;5068330;28;20057;-54
2023/12/21 00:45:36;;;;;;;1.95;0.90;;;;;;;10.28;100.00;100452.50;5051104;28;20434;-50
2023/12/21 00:48:04;;;;;;;5.10;1.05;;;;;;;10.29;100.00;100459.66;5068594;28;20059;-51
2023/12/21 00:50:31;;;;;;;4.13;0.75;;;;;;;10.30;100.00;100452.13;5050699;28;20055;-47
2023/12/21 00:52:59;;;;;;;2.08;1.17;;;;;;;10.30;100.00;100444.66;5068537;28;20045;-48
2023/12/21 00:55:26;;;;;;;3.42;1.65;;;;;;;10.31;100.00;100445.47;5069236;28;20053;-49
2023/12/21 00:57:53;;;;;;;2.90;0.50;;;;;;;10.32;100.00;100453.44;5061624;28;20044;-47
2023/12/21 01:00:21;;;;;;;11.00;1.10;;;;;;;10.33;100.00;100454.22;5063316;28;20055;-50
2023/12/21 01:02:48;;;;;;;6.43;1.40;;;;;;;10.33;100.00;100443.94;5088402;28;20749;-51
2023/12/21 01:05:16;;;;;;;7.07;0.95;;;;;;;10.33;100.00;100455.03;5075694;28;20064;-48
2023/12/21 01:07:43;;;;;;;7.82;2.60;;;;;;;10.34;100.00;100439.22;5076070;28;20390;-50
2023/12/21 01:10:11;;;;;;;6.00;1.58;;;;;;;10.35;100.00;100427.00;5086004;28;20051;-51
2023/12/21 01:12:41;;;;;;;6.57;0.95;;;;;;;10.34;100.00;100423.44;5088528;28;20048;-49
2023/12/21 01:15:08;;;;;;;5.60;1.38;;;;;;;10.33;100.00;100416.28;5088347;28;20055;-48
2023/12/21 01:17:36;;;;;;;4.43;1.40;;;;;;;10.33;100.00;100438.41;5088065;28;20051;-51
2023/12/21 01:20:04;;;;;;;5.68;1.17;;;;;;;10.34;100.00;100417.91;5084057;28;20040;-52
2023/12/21 01:22:31;;;;;;;2.40;0.98;;;;;;;10.34;100.00;100406.84;5067663;28;20398;-51
2023/12/21 01:24:59;;;;;;;6.18;1.13;;;;;;;10.35;100.00;100410.41;5067566;28;20052;-47
2023/12/21 01:27:27;;;;;;;7.30;2.47;;;;;;;10.34;100.00;100423.44;5067584;28;20079;-50
2023/12/21 01:29:59;;;;;;;3.33;1.17;;;;;;;10.35;100.00;100402.13;5059988;28;20060;-48
2023/12/21 01:32:26;;;;;;;13.02;4.00;;;;;;;10.36;100.00;100382.38;5049951;28;20045;-49
2023/12/21 01:34:54;;;;;;;12.88;2.63;;;;;;;10.36;100.00;100385.16;5063301;28;20040;-51
2023/12/21 01:37:21;;;;;;;12.57;2.55;;;;;;;10.37;100.00;100378.47;5066278;28;20040;-52
2023/12/21 01:39:49;;;;;;;4.63;1.80;;;;;;;10.37;100.00;100367.41;5067414;28;20049;-51
2023/12/21 01:42:16;;;;;;;14.18;2.00;;;;;;;10.38;100.00;100374.53;5067603;28;20048;-52
2023/12/21 01:44:43;;;;;;;7.30;1.17;;;;;;;10.39;100.00;100373.38;5067462;28;20056;-49
2023/12/21 01:47:11;;;;;;;7.85;2.05;;;;;;;10.40;100.00;100368.66;5066656;28;20059;-51
2023/12/21 01:49:40;;;;;;;8.93;1.70;;;;;;;10.39;100.00;100365.06;5067024;28;20041;-48
2023/12/21 01:52:09;;;;;;;12.63;2.15;;;;;;;10.39;100.00;100356.78;5067356;28;20048;-49
2023/12/21 01:54:36;;;;;;;7.03;1.80;;;;;;;10.40;100.00;100354.81;5074859;28;20045;-51
2023/12/21 01:57:04;;;;;;;9.13;2.38;;;;;;;10.39;100.00;100355.97;5066990;28;20047;-50
2023/12/21 01:59:31;;;;;;;10.80;2.20;;;;;;;10.37;100.00;100356.31;5053858;28;20052;-50
2023/12/21 02:01:58;;;;;;;9.05;1.55;;;;;;;10.37;100.00;100350.78;5067194;28;20049;-55
2023/12/21 02:04:26;;;;;;;6.18;1.30;;;;;;;10.36;100.00;100340.88;5073987;28;20056;-50
2023/12/21 02:06:54;;;;;;;10.30;2.60;;;;;;;10.36;100.00;100342.81;5066759;28;20060;-48
2023/12/21 02:09:21;;;;;;;11.35;1.83;;;;;;;10.35;100.00;100336.47;5060286;28;20428;-50
2023/12/21 02:11:48;;;;;;;13.35;3.10;;;;;;;10.34;100.00;100334.88;5079972;28;20147;-49
2023/12/21 02:14:16;;;;;;;9.55;1.98;;;;;;;10.34;100.00;100329.34;5066630;28;20525;-48
2023/12/21 02:17:02;;;;;;;12.23;3.00;;;;;;;10.34;100.00;100334.88;5072550;28;20137;-50
2023/12/21 02:19:29;;;;;;;11.23;1.70;;;;;;;10.33;100.00;100327.75;5069849;28;20714;-53
2023/12/21 02:22:01;;;;;;;8.50;1.70;;;;;;;10.33;100.00;100327.75;5067304;28;20041;-49
2023/12/21 02:24:30;;;;;;;6.53;2.42;;;;;;;10.33;100.00;100338.81;5066016;28;20056;-53
2023/12/21 02:26:59;;;;;;;10.57;1.73;;;;;;;10.33;100.00;100316.66;5057092;28;20032;-50
2023/12/21 02:29:26;;;;;;;14.85;2.00;;;;;;;10.34;100.00;100328.53;5067099;28;20059;-46
2023/12/21 02:31:53;;;;;;;6.50;1.35;;;;;;;10.33;100.00;100316.66;5066644;28;20054;-52
2023/12/21 02:34:21;;;;;;;12.40;1.98;;;;;;;10.33;100.00;100315.84;5086200;28;20059;-53
2023/12/21 02:36:48;;;;;;;15.13;2.10;;;;;;;10.32;100.00;100317.03;5073755;28;20044;-53
2023/12/21 02:39:16;;;;;;;8.80;2.10;;;;;;;10.31;100.00;100307.13;5067697;28;20049;-49
2023/12/21 02:41:43;;;;;;;7.10;2.13;;;;;;;10.32;100.00;100317.84;5066937;28;20044;-50
2023/12/21 02:44:10;;;;;;;11.35;1.85;;;;;;;10.31;100.00;100302.41;5066389;28;20044;-52
2023/12/21 02:46:38;;;;;;;9.45;2.30;;;;;;;10.32;100.00;100303.19;5066911;28;20545;-47
2023/12/21 02:49:05;;;;;;;10.65;2.30;;;;;;;10.31;100.00;100319.00;5066855;28;20059;-48
2023/12/21 02:51:32;;;;;;;8.15;2.28;;;;;;;10.32;100.00;100292.13;5066511;28;20544;-51
2023/12/21 02:54:00;;;;;;;9.57;2.65;;;;;;;10.32;100.00;100301.25;5073629;28;20066;-48
2023/12/21 02:56:27;;;;;;;13.68;2.28;;;;;;;10.31;100.00;100307.94;5072068;28;20049;-49
2023/12/21 02:58:54;;;;;;;19.58;3.13;;;;;;;10.32;100.00;100304.00;5066670;28;20067;-49
2023/12/21 03:01:22;;;;;;;9.27;2.88;;;;;;;10.31;100.00;100294.09;4815823;22;20053;-50
2023/12/21 03:03:51;;;;;;;8.48;2.13;;;;;;;10.31;100.00;100313.47;5028208;28;20056;-52
2023/12/21 03:06:18;;;;;;;6.80;2.00;;;;;;;10.31;100.00;100310.69;5030130;28;20042;-50
2023/12/21 03:08:45;;;;;;;12.00;2.05;;;;;;;10.31;100.00;100318.19;5035457;28;20048;-46
2023/12/21 03:11:13;;;;;;;17.35;2.35;;;;;;;10.29;100.00;100296.41;5037555;28;20041;-47
2023/12/21 03:13:40;;;;;;;11.52;2.08;;;;;;;10.30;100.00;100289.69;5030069;28;20045;-50
2023/12/21 03:16:09;;;;;;;13.73;2.30;;;;;;;10.30;100.00;100298.00;5030398;28;20053;-47
2023/12/21 03:18:37;;;;;;;13.20;2.72;;;;;;;10.29;100.00;100293.66;5029968;28;20045;-48
2023/12/21 03:21:04;;;;;;;15.20;3.47;;;;;;;10.30;100.00;100286.94;5029719;28;20041;-52
2023/12/21 03:23:34;;;;;;;10.98;1.63;;;;;;;10.29;100.00;100271.50;5029504;28;20400;-51
2023/12/21 03:26:01;;;;;;;8.32;2.00;;;;;;;10.28;100.00;100263.56;5029404;28;20084;-45
2023/12/21 03:28:28;;;;;;;11.75;3.08;;;;;;;10.27;100.00;100246.13;5029481;28;20041;-50
2023/12/21 03:30:56;;;;;;;10.15;2.72;;;;;;;10.27;100.00;100251.66;5029915;28;20046;-49
2023/12/21 03:33:23;;;;;;;16.58;2.72;;;;;;;10.28;100.00;100231.16;5029828;28;20404;-50
2023/12/21 03:35:51;;;;;;;8.95;1.80;;;;;;;10.27;100.00;100218.47;5024799;28;20076;-48
2023/12/21 03:38:18;;;;;;;12.30;2.25;;;;;;;10.28;100.00;100214.56;5021845;28;20537;-52
2023/12/21 03:40:46;;;;;;;10.30;2.33;;;;;;;10.27;100.00;100182.50;5028954;28;20049;-49
2023/12/21 03:43:13;;;;;;;8.55;2.13;;;;;;;10.28;100.00;100181.34;5028939;28;20042;-51
2023/12/21 03:45:40;;;;;;;13.45;2.97;;;;;;;10.29;100.00;100173.88;5029077;28;20510;-45
2023/12/21 03:48:09;;;;;;;13.20;2.50;;;;;;;10.29;100.00;100182.97;5029771;28;20050;-51
2023/12/21 03:50:36;;;;;;;13.63;2.67;;;;;;;10.29;100.00;100171.91;5029024;28;20045;-50
2023/12/21 03:53:07;;;;;;;15.93;4.22;;;;;;;10.30;100.00;100190.09;5029019;28;20042;-44
2023/12/21 03:55:36;;;;;;;8.80;2.63;;;;;;;10.32;100.00;100173.16;5018517;28;20534;-46
2023/12/21 03:58:04;;;;;;;18.40;4.65;;;;;;;10.34;100.00;100179.94;5028954;28;20037;-48
2023/12/21 04:00:32;;;;;;;10.10;3.42;;;;;;;10.35;100.00;100191.81;5028452;28;20041;-51
2023/12/21 04:02:59;;;;;;;16.95;3.65;;;;;;;10.35;100.00;100200.91;5029137;28;20065;-51
2023/12/21 04:05:26;;;;;;;21.42;4.20;;;;;;;10.35;100.00;100189.06;5029064;28;20046;-51
2023/12/21 04:07:54;;;;;;;10.35;2.13;;;;;;;10.34;100.00;100188.25;5028306;28;20557;-46
2023/12/21 04:10:21;;;;;;;14.05;2.63;;;;;;;10.35;100.00;100192.59;5029035;28;20577;-45
2023/12/21 04:12:48;;;;;;;17.95;3.65;;;;;;;10.36;100.00;100180.38;5030865;28;20688;-47
2023/12/21 04:15:16;;;;;;;18.83;3.17;;;;;;;10.37;100.00;100179.22;5029435;28;20060;-47
2023/12/21 04:17:43;;;;;;;14.18;3.00;;;;;;;10.36;100.00;100188.69;5028492;28;20667;-50
2023/12/21 04:20:11;;;;;;;18.88;2.60;;;;;;;10.38;100.00;100197.41;5028864;28;20388;-46
2023/12/21 04:22:38;;;;;;;16.17;4.03;;;;;;;10.39;100.00;100192.69;5027096;28;20053;-47
2023/12/21 04:25:06;;;;;;;15.70;3.17;;;;;;;10.37;100.00;100206.91;5028291;28;20056;-46
2023/12/21 04:27:34;;;;;;;18.08;3.90;;;;;;;10.39;100.00;100209.28;5028732;28;20053;-47
2023/12/21 04:30:02;;;;;;;12.32;3.78;;;;;;;10.38;100.00;100221.50;5027921;28;20053;-52
2023/12/21 04:32:30;;;;;;;12.18;3.10;;;;;;;10.38;100.00;100208.50;5028357;28;20407;-47
2023/12/21 04:34:58;;;;;;;14.98;3.63;;;;;;;10.38;100.00;100225.09;5028423;28;20072;-51
2023/12/21 04:37:25;;;;;;;15.43;3.17;;;;;;;10.38;100.00;100222.31;5027764;28;20499;-46
2023/12/21 04:39:52;;;;;;;22.77;4.15;;;;;;;10.39;100.00;100223.13;5028027;28;20064;-49
2023/12/21 04:42:20;;;;;;;12.20;2.55;;;;;;;10.39;100.00;100232.25;5028380;28;20087;-49
2023/12/21 04:44:47;;;;;;;18.17;2.53;;;;;;;10.39;100.00;100223.94;5027964;28;20570;-51
2023/12/21 04:47:14;;;;;;;14.05;2.75;;;;;;;10.39;100.00;100246.09;5028148;28;20060;-48
2023/12/21 04:49:51;;;;;;;18.55;3.80;;;;;;;10.38;100.00;100241.69;5028009;28;20046;-49
2023/12/21 04:52:19;;;;;;;16.33;3.30;;;;;;;10.37;100.00;100233.75;5020092;28;20526;-46
2023/12/21 04:54:46;;;;;;;20.73;3.08;;;;;;;10.37;100.00;100222.69;5027510;28;20041;-50
2023/12/21 04:57:13;;;;;;;22.98;3.20;;;;;;;10.36;100.00;100243.22;5027808;28;20053;-45
2023/12/21 04:59:44;;;;;;;11.27;2.45;;;;;;;10.35;100.00;100245.16;5026153;28;20052;-50
2023/12/21 05:02:12;;;;;;;12.60;2.53;;;;;;;10.33;100.00;100244.72;5015744;28;20053;-48
2023/12/21 05:04:39;;;;;;;11.35;2.55;;;;;;;10.33;100.00;100250.25;5027239;28;20124;-48
2023/12/21 05:07:10;;;;;;;13.02;2.95;;;;;;;10.34;100.00;100249.13;5027685;28;20541;-49
2023/12/21 05:09:37;;;;;;;14.38;3.95;;;;;;;10.34;100.00;100259.38;5029667;28;20041;-49
2023/12/21 05:12:05;;;;;;;9.35;2.45;;;;;;;10.35;100.00;100261.00;5029692;28;20056;-48
2023/12/21 05:14:32;;;;;;;9.52;2.63;;;;;;;10.35;100.00;100247.94;5026758;28;20621;-48
2023/12/21 05:17:00;;;;;;;9.07;1.85;;;;;;;10.37;100.00;100289.09;5028069;28;20045;-49
2023/12/21 05:19:27;;;;;;;8.40;2.88;;;;;;;10.35;100.00;100259.00;5026765;28;20052;-52
2023/12/21 05:21:55;;;;;;;12.23;3.42;;;;;;;10.37;100.00;100261.44;5026208;28;20511;-51
2023/12/21 05:24:23;;;;;;;12.02;2.60;;;;;;;10.37;100.00;100248.41;5027675;28;20049;-52
2023/12/21 05:26:50;;;;;;;11.98;2.13;;;;;;;10.36;100.00;100257.84;5026842;28;20049;-50
2023/12/21 05:29:18;;;;;;;8.43;2.35;;;;;;;10.37;100.00;100273.31;5026815;28;20383;-48
2023/12/21 05:31:45;;;;;;;10.68;2.15;;;;;;;10.38;100.00;100263.84;5027677;28;20061;-48
2023/12/21 05:34:12;;;;;;;6.20;1.27;;;;;;;10.39;100.00;100264.63;5027442;28;20045;-53
2023/12/21 05:36:40;;;;;;;8.20;1.73;;;;;;;10.37;100.00;100256.72;5012788;28;20048;-49
2023/12/21 05:39:09;;;;;;;7.65;1.70;;;;;;;10.39;100.00;100259.09;5026597;28;20525;-48
2023/12/21 05:41:45;;;;;;;9.18;1.80;;;;;;;10.39;100.00;100240.53;5027725;28;20537;-47
2023/12/21 05:44:12;;;;;;;8.52;1.52;;;;;;;10.39;100.00;100229.47;5026473;28;21251;-48
2023/12/21 05:46:42;;;;;;;7.78;2.22;;;;;;;10.39;100.00;100243.31;5027619;28;20060;-51
2023/12/21 05:49:10;;;;;;;6.70;1.58;;;;;;;10.41;100.00;100248.47;5020699;28;20045;-52
2023/12/21 05:51:38;;;;;;;8.25;2.28;;;;;;;10.42;100.00;100246.53;5026725;28;20519;-48
2023/12/21 05:54:06;;;;;;;10.63;1.90;;;;;;;10.42;100.00;100241.78;5027381;28;20060;-51
2023/12/21 05:56:36;;;;;;;4.93;1.58;;;;;;;10.43;100.00;100220.47;5025685;28;20038;-48
2023/12/21 05:59:03;;;;;;;10.50;1.42;;;;;;;10.44;100.00;100244.19;5027166;28;20578;-48
2023/12/21 06:01:33;;;;;;;9.70;2.65;;;;;;;10.44;100.00;100242.25;5025984;28;20140;-50
2023/12/21 06:04:00;;;;;;;7.78;1.80;;;;;;;10.44;100.00;100255.25;5026426;28;20398;-53
2023/12/21 06:06:28;;;;;;;6.78;1.38;;;;;;;10.46;100.00;100236.38;5026213;28;20058;-50
2023/12/21 06:08:55;;;;;;;6.95;1.63;;;;;;;10.48;100.00;100258.94;5027027;28;20527;-49
2023/12/21 06:11:23;;;;;;;6.70;1.95;;;;;;;10.49;100.00;100174.72;5030037;28;20049;-48
2023/12/21 06:13:50;;;;;;;3.13;1.45;;;;;;;10.50;100.00;100201.25;5026436;28;20051;-52
2023/12/21 06:16:17;;;;;;;9.65;1.80;;;;;;;10.50;100.00;100223.41;5024451;28;20053;-51
2023/12/21 06:18:45;;;;;;;8.70;1.30;;;;;;;10.50;100.00;100217.88;5026530;28;20049;-48
2023/12/21 06:21:13;;;;;;;11.93;1.80;;;;;;;10.49;100.00;100213.47;5026495;28;20045;-50
2023/12/21 06:23:40;;;;;;;5.55;1.30;;;;;;;10.49;100.00;100196.88;5026768;28;20530;-47
2023/12/21 06:26:07;;;;;;;5.57;1.35;;;;;;;10.51;100.00;100206.44;5027115;28;20037;-54
2023/12/21 06:28:35;;;;;;;4.85;1.58;;;;;;;10.52;100.00;100191.44;5026684;28;20067;-50
2023/12/21 06:31:03;;;;;;;10.70;1.55;;;;;;;10.53;100.00;100200.56;5025422;28;20041;-50
2023/12/21 06:33:31;;;;;;;7.15;1.40;;;;;;;10.53;100.00;100217.16;5026818;28;20056;-49
2023/12/21 06:35:58;;;;;;;4.45;1.27;;;;;;;10.55;100.00;100196.25;5024408;28;20042;-47
2023/12/21 06:38:26;;;;;;;8.45;1.48;;;;;;;10.57;100.00;100204.19;5028264;28;20041;-49
2023/12/21 06:40:53;;;;;;;9.57;1.65;;;;;;;10.57;100.00;100191.16;5029432;28;20045;-51
2023/12/21 06:43:22;;;;;;;5.28;1.17;;;;;;;10.59;100.00;100207.44;5023827;28;20045;-47
2023/12/21 06:45:49;;;;;;;9.55;1.98;;;;;;;10.57;100.00;100207.78;5028935;28;20050;-50
2023/12/21 06:48:17;;;;;;;6.35;1.60;;;;;;;10.58;100.00;100200.28;5030444;28;20048;-47
2023/12/21 06:50:44;;;;;;;9.20;1.17;;;;;;;10.57;100.00;100201.44;5030012;28;20041;-49
2023/12/21 06:53:15;;;;;;;2.28;1.08;;;;;;;10.56;100.00;100194.31;5029809;28;20053;-51
2023/12/21 06:55:43;;;;;;;8.13;1.70;;;;;;;10.57;100.00;100213.31;5025235;28;20045;-49
2023/12/21 06:58:10;;;;;;;6.10;1.10;;;;;;;10.58;100.00;100214.94;5030188;28;20056;-48
2023/12/21 07:00:38;;;;;;;7.95;1.25;;;;;;;10.58;100.00;100216.88;5029730;28;20553;-46
2023/12/21 07:03:06;;;;;;;6.45;1.60;;;;;;;10.60;100.00;100193.22;5017864;28;20046;-48
2023/12/21 07:05:33;;;;;;;11.23;1.50;;;;;;;10.59;100.00;100185.28;5029738;28;20057;-51
2023/12/21 07:08:01;;;;;;;4.82;1.83;;;;;;;10.60;100.00;100192.41;5030664;28;20049;-45
2023/12/21 07:10:28;;;;;;;4.72;1.40;;;;;;;10.60;100.00;100184.09;5032903;28;20057;-52
2023/12/21 07:12:56;;;;;;;4.72;1.33;;;;;;;10.57;100.00;100177.31;5033271;28;20037;-46
2023/12/21 07:15:23;;;;;;;6.82;1.58;;;;;;;10.56;100.00;100166.63;5030533;28;20050;-53
2023/12/21 07:17:50;;;;;;;4.57;0.90;;;;;;;10.56;100.00;100180.47;5033461;28;20037;-49
2023/12/21 07:20:21;;;;;;;6.60;0.85;;;;;;;10.57;100.00;100173.75;5034785;28;20052;-51
2023/12/21 07:22:48;;;;;;;6.97;1.02;;;;;;;10.56;100.00;100181.28;5029732;28;20049;-50
2023/12/21 07:25:16;;;;;;;5.60;0.93;;;;;;;10.57;100.00;100146.06;5028543;28;20723;-48
2023/12/21 07:27:43;;;;;;;8.93;2.95;;;;;;;10.60;100.00;100184.09;5029459;28;20042;-47
2023/12/21 07:30:13;;;;;;;4.55;0.82;;;;;;;10.63;100.00;100183.41;5029779;28;20049;-50
2023/12/21 07:32:40;;;;;;;3.97;1.52;;;;;;;10.64;100.00;100173.94;5029389;28;20534;-48
2023/12/21 07:35:08;;;;;;;3.42;0.98;;;;;;;10.66;100.00;100179.91;5028611;28;20499;-48
2023/12/21 07:37:35;;;;;;;7.03;1.20;;;;;;;10.66;100.00;100180.72;5028984;28;20041;-46
2023/12/21 07:40:03;;;;;;;5.90;1.10;;;;;;;10.67;100.00;100176.00;5029513;28;20057;-50
2023/12/21 07:42:31;;;;;;;3.08;0.90;;;;;;;10.66;100.00;100180.72;5028907;28;20411;-46
2023/12/21 07:44:58;;;;;;;2.15;0.88;;;;;;;10.66;100.00;100196.53;5030214;28;20037;-45
2023/12/21 07:47:25;;;;;;;3.80;0.95;;;;;;;10.66;100.00;100207.59;5028734;28;20041;-47
2023/12/21 07:49:55;;;;;;;6.00;1.52;;;;;;;10.66;100.00;100188.22;5029386;28;20053;-48
2023/12/21 07:52:22;;;;;;;4.82;0.98;;;;;;;10.67;100.00;100206.44;5030010;28;20052;-49
2023/12/21 07:54:50;;;;;;;8.38;1.48;;;;;;;10.69;100.00;100159.81;5029125;28;20057;-49
2023/12/21 07:57:17;;;;;;;4.13;1.05;;;;;;;10.69;100.00;100184.72;5029835;28;20075;-48
2023/12/21 07:59:44;;;;;;;7.57;1.27;;;;;;;10.72;100.00;100203.41;5029403;28;20400;-48
2023/12/21 08:02:12;;;;;;;9.23;1.55;;;;;;;10.76;100.00;100223.66;5029061;28;20064;-49
2023/12/21 08:04:40;;;;;;;5.45;1.20;;;;;;;10.76;100.00;100187.66;5029012;28;20064;-50
2023/12/21 08:07:08;;;;;;;14.05;2.10;;;;;;;10.79;100.00;100193.28;5029758;28;20049;-50
2023/12/21 08:09:35;;;;;;;4.72;1.15;;;;;;;10.79;100.00;100207.13;5038635;28;20044;-47
2023/12/21 08:12:03;;;;;;;4.97;1.48;;;;;;;10.78;100.00;100194.44;5032503;28;20048;-47
2023/12/21 08:14:35;;;;;;;3.75;0.98;;;;;;;10.78;100.00;100193.63;5028332;28;20049;-48
2023/12/21 08:17:06;;;;;;;6.93;1.30;;;;;;;10.77;100.00;100214.19;5028816;28;20695;-46
2023/12/21 08:19:34;;;;;;;4.20;0.93;;;;;;;10.75;100.00;100189.63;5027696;28;20058;-48
2023/12/21 08:22:01;;;;;;;5.60;1.13;;;;;;;10.76;100.00;100201.50;5028119;28;20038;-46
2023/12/21 08:24:29;;;;;;;3.58;1.00;;;;;;;10.75;100.00;100194.38;5028685;28;20702;-47
2023/12/21 08:26:56;;;;;;;5.40;1.10;;;;;;;10.74;100.00;100176.97;5028953;28;20060;-50
2023/12/21 08:29:24;;;;;;;4.53;1.02;;;;;;;10.74;100.00;100188.03;5032803;28;20053;-48
2023/12/21 08:31:51;;;;;;;5.22;1.38;;;;;;;10.72;100.00;100201.41;5029028;28;20057;-47
2023/12/21 08:34:18;;;;;;;7.93;1.30;;;;;;;10.75;100.00;100205.47;5027687;28;20045;-48
2023/12/21 08:36:46;;;;;;;2.85;1.73;;;;;;;10.75;100.00;100188.84;5029332;28;20037;-51
2023/12/21 08:39:13;;;;;;;5.30;1.38;;;;;;;10.74;100.00;100209.38;5028118;28;20227;-47
2023/12/21 08:41:40;;;;;;;7.72;1.85;;;;;;;10.74;100.00;100228.75;5028243;28;20033;-52
2023/12/21 08:44:08;;;;;;;4.43;1.33;;;;;;;10.73;100.00;100224.38;5027908;28;20045;-49
2023/12/21 08:46:35;;;;;;;5.82;1.17;;;;;;;10.72;100.00;100195.88;5028064;28;20057;-47
2023/12/21 08:49:02;;;;;;;4.65;1.88;;;;;;;10.74;100.00;100214.91;5028084;28;20048;-45
2023/12/21 08:51:30;;;;;;;10.63;2.30;;;;;;;10.73;100.00;100235.44;5028718;28;20073;-49
2023/12/21 08:53:57;;;;;;;7.72;1.60;;;;;;;10.73;100.00;100246.50;5027983;28;20047;-50
2023/12/21 08:56:25;;;;;;;5.88;1.60;;;;;;;10.72;100.00;100212.47;5028425;28;20068;-46
2023/12/21 08:58:56;;;;;;;4.97;1.30;;;;;;;10.72;100.00;100245.72;5015778;28;20046;-46
2023/12/21 09:01:24;;;;;;;10.77;2.50;;;;;;;10.73;100.00;100233.47;5027503;28;20054;-52
2023/12/21 09:03:51;;;;;;;5.97;1.15;;;;;;;10.75;100.00;100266.38;5028151;28;20438;-51
2023/12/21 09:06:18;;;;;;;6.38;1.20;;;;;;;10.74;100.00;100240.63;5028473;28;20042;-49
2023/12/21 09:08:46;;;;;;;8.23;1.40;;;;;;;10.75;100.00;100260.81;5034439;28;20074;-52
2023/12/21 09:11:13;;;;;;;5.38;1.33;;;;;;;10.74;100.00;100282.16;5035411;28;20045;-49
2023/12/21 09:13:40;;;;;;;3.33;1.13;;;;;;;10.72;100.00;100267.06;5028085;28;20061;-48
2023/12/21 09:16:08;;;;;;;4.63;1.15;;;;;;;10.68;100.00;100291.09;5028299;28;20056;-50
2023/12/21 09:18:35;;;;;;;3.72;0.88;;;;;;;10.62;100.00;100295.28;5028447;28;20439;-48
2023/12/21 09:21:03;;;;;;;7.00;1.05;;;;;;;10.52;100.00;100284.72;5028075;28;20048;-49
2023/12/21 09:23:31;;;;;;;5.63;0.80;;;;;;;10.46;100.00;100277.88;5027316;28;20060;-51
2023/12/21 09:25:59;;;;;;;7.80;1.15;;;;;;;10.38;100.00;100255.53;5028146;28;20132;-49
2023/12/21 09:28:27;;;;;;;2.97;0.85;;;;;;;10.34;100.00;100271.25;5027859;28;20045;-46
2023/12/21 09:30:55;;;;;;;7.22;1.30;;;;;;;10.30;100.00;100277.81;5027827;28;20080;-50
2023/12/21 09:33:22;;;;;;;6.20;1.33;;;;;;;10.27;100.00;100290.41;5010755;28;20041;-47
2023/12/21 09:35:54;;;;;;;7.60;1.80;;;;;;;10.29;100.00;100281.78;5030149;28;20617;-49
2023/12/21 09:38:21;;;;;;;11.10;2.75;;;;;;;10.28;100.00;100269.91;5034302;28;20060;-53
2023/12/21 09:40:48;;;;;;;8.30;2.17;;;;;;;10.29;100.00;100271.50;5027370;28;20591;-55
2023/12/21 09:43:17;;;;;;;9.63;1.80;;;;;;;10.31;100.00;100280.25;5028014;28;20052;-51
2023/12/21 09:45:48;;;;;;;7.05;1.88;;;;;;;10.32;100.00;100287.41;5027280;28;20060;-51
2023/12/21 09:48:18;;;;;;;10.73;1.70;;;;;;;10.32;100.00;100292.94;5028214;28;20045;-47
2023/12/21 09:50:49;;;;;;;10.40;1.95;;;;;;;10.31;100.00;100274.72;5014554;28;20042;-50
2023/12/21 09:53:19;;;;;;;4.60;1.70;;;;;;;10.32;100.00;100278.31;5025338;28;20053;-49
2023/12/21 09:55:49;;;;;;;8.85;1.40;;;;;;;10.31;100.00;100284.97;5027421;28;20053;-50
2023/12/21 09:58:17;;;;;;;14.45;2.60;;;;;;;10.29;100.00;100290.88;5027705;28;20045;-49
2023/12/21 10:00:44;;;;;;;12.65;2.13;;;;;;;10.30;100.00;100288.91;5027275;28;20060;-48
2023/12/21 10:03:12;;;;;;;11.45;2.60;;;;;;;10.30;100.00;100303.53;5027078;28;20511;-49
2023/12/21 10:05:40;;;;;;;7.57;3.58;;;;;;;10.33;100.00;100310.31;5027573;28;20056;-49
2023/12/21 10:08:09;;;;;;;7.80;2.33;;;;;;;10.37;100.00;100338.91;5026850;28;20503;-50
2023/12/21 10:10:39;;;;;;;12.70;4.03;;;;;;;10.42;100.00;100296.34;5001628;28;20050;-46
2023/12/21 10:13:07;;;;;;;11.82;3.85;;;;;;;10.43;100.00;100295.19;5033488;28;20064;-50
2023/12/21 10:15:34;;;;;;;11.32;2.15;;;;;;;10.44;100.00;100305.06;5035250;28;20049;-47
2023/12/21 10:18:06;;;;;;;15.45;2.70;;;;;;;10.46;100.00;100330.47;5033421;28;20049;-45
2023/12/21 10:20:33;;;;;;;21.40;3.25;;;;;;;10.45;100.00;100285.38;5031440;28;20395;-51
2023/12/21 10:23:01;;;;;;;18.00;3.60;;;;;;;10.47;100.00;100299.66;5036661;28;20063;-49
2023/12/21 10:25:29;;;;;;;14.48;2.40;;;;;;;10.49;100.00;100318.66;5030841;28;20056;-51
2023/12/21 10:27:56;;;;;;;15.65;3.35;;;;;;;10.50;100.00;100312.78;5031224;28;20045;-53
2023/12/21 10:30:25;;;;;;;12.32;2.97;;;;;;;10.50;100.00;100304.47;5031019;28;20072;-51
2023/12/21 10:32:54;;;;;;;18.92;3.45;;;;;;;10.52;100.00;100320.72;5031330;28;20052;-51
2023/12/21 10:35:25;;;;;;;17.98;2.97;;;;;;;10.51;100.00;100319.91;5031253;28;20395;-53
2023/12/21 10:37:54;;;;;;;12.05;3.03;;;;;;;10.53;100.00;100316.78;5041148;28;20041;-46
2023/12/21 10:40:23;;;;;;;14.57;2.05;;;;;;;10.55;100.00;100317.25;5031835;28;20041;-45
2023/12/21 10:42:51;;;;;;;20.05;3.20;;;;;;;10.59;100.00;100323.69;5031036;28;20046;-48
2023/12/21 10:45:19;;;;;;;16.25;3.50;;;;;;;10.61;100.00;100321.38;5030926;28;20045;-50
2023/12/21 10:48:07;;;;;;;20.10;3.87;;;;;;;10.63;100.00;100307.97;5031302;28;20056;-47
2023/12/21 10:50:36;;;;;;;15.60;4.40;;;;;;;10.65;100.00;100322.25;5030638;28;20499;-47
2023/12/21 10:53:04;;;;;;;12.95;5.10;;;;;;;10.65;100.00;100314.75;5031196;28;20049;-51
2023/12/21 10:55:32;;;;;;;16.35;3.38;;;;;;;10.66;100.00;100351.56;5030723;28;20045;-48
2023/12/21 10:58:00;;;;;;;9.30;2.35;;;;;;;10.68;100.00;100365.84;5030347;28;20049;-58
2023/12/21 11:00:29;;;;;;;9.02;2.83;;;;;;;10.67;100.00;100356.72;5030817;28;20054;-48
2023/12/21 11:02:58;;;;;;;16.65;3.28;;;;;;;10.65;100.00;100345.19;5030055;28;20076;-51
2023/12/21 11:05:27;;;;;;;6.68;2.30;;;;;;;10.62;100.00;100358.94;5034093;28;20041;-53
2023/12/21 11:07:55;;;;;;;11.75;2.58;;;;;;;10.57;100.00;100384.94;5034739;28;20049;-51
2023/12/21 11:10:24;;;;;;;11.27;4.47;;;;;;;10.52;100.00;100370.53;5040931;28;20049;-50
2023/12/21 11:12:52;;;;;;;9.73;4.03;;;;;;;10.52;100.00;100389.91;5033710;28;20041;-50
2023/12/21 11:15:20;;;;;;;15.10;3.25;;;;;;;10.48;100.00;100364.91;5031672;28;20053;-45
2023/12/21 11:18:01;;;;;;;9.45;2.00;;;;;;;10.44;99.19;100393.63;5039200;28;20395;-50
2023/12/21 11:20:34;;;;;;;6.80;2.63;;;;;;;10.46;99.70;100383.81;5037723;28;20045;-49